Time;durP1;ratioP1;P1;durP2;ratioP2;P2;SDS_P1;SDS_P2;PMS_P1;PMS_P2;Temp;Humidity;BMP_temperature;BMP_pressure;BME280_temperature;BME280_humidity;BME280_pressure;Samples;Min_cycle;Max_cycle;Signal;HPM_P1;HPM_P2
2023/12/31 00:00:46;;;;;;;5.65;2.10;;;;;;;8.32;100.00;100160.25;5033539;28;20029;-76
2023/12/31 00:03:11;;;;;;;3.42;2.00;;;;;;;8.30;100.00;100151.66;5051349;28;20036;-77
2023/12/31 00:05:37;;;;;;;2.97;1.60;;;;;;;8.35;100.00;100151.84;5051188;28;20115;-76
2023/12/31 00:08:02;;;;;;;4.18;1.92;;;;;;;8.34;100.00;100147.56;5051436;28;20056;-77
2023/12/31 00:10:28;;;;;;;4.50;2.15;;;;;;;8.34;100.00;100142.22;5033468;28;20551;-76
2023/12/31 00:12:53;;;;;;;3.03;2.00;;;;;;;8.36;100.00;100118.84;5051209;28;20027;-76
2023/12/31 00:15:18;;;;;;;3.75;2.28;;;;;;;8.38;100.00;100134.63;5033389;28;20127;-75
2023/12/31 00:17:44;;;;;;;2.17;1.90;;;;;;;8.39;100.00;100125.63;5051143;28;20453;-77
2023/12/31 00:20:10;;;;;;;2.38;2.08;;;;;;;8.41;100.00;100114.75;5051214;28;20087;-75
2023/12/31 00:22:36;;;;;;;3.50;2.10;;;;;;;8.41;100.00;100117.41;5050957;28;20104;-76
2023/12/31 00:25:01;;;;;;;2.28;1.90;;;;;;;8.40;100.00;100111.28;5050839;28;20106;-75
2023/12/31 00:27:26;;;;;;;4.10;2.33;;;;;;;8.38;100.00;100122.16;5050952;28;20101;-76
2023/12/31 00:29:52;;;;;;;4.10;2.20;;;;;;;8.40;100.00;100095.28;5051026;28;20029;-76
2023/12/31 00:32:17;;;;;;;5.35;1.85;;;;;;;8.40;100.00;100097.94;5050895;28;20025;-76
2023/12/31 00:34:43;;;;;;;2.25;2.03;;;;;;;8.43;100.00;100094.84;5033114;28;20056;-76
2023/12/31 00:37:08;;;;;;;2.42;1.80;;;;;;;8.58;100.00;100087.31;5032978;28;20121;-77
2023/12/31 00:39:33;;;;;;;2.70;1.90;;;;;;;8.47;100.00;100081.91;5032817;28;20040;-78
2023/12/31 00:41:59;;;;;;;3.05;2.00;;;;;;;8.50;100.00;100071.63;5050778;28;20021;-76
2023/12/31 00:44:25;;;;;;;2.05;1.80;;;;;;;8.51;100.00;100064.44;5032889;28;20482;-77
2023/12/31 00:46:50;;;;;;;3.25;1.77;;;;;;;8.49;100.00;100059.34;5053447;28;20037;-77
2023/12/31 00:49:16;;;;;;;3.47;1.90;;;;;;;8.43;100.00;100046.91;5036250;28;20412;-77
2023/12/31 00:51:42;;;;;;;2.00;1.80;;;;;;;8.48;100.00;100060.38;5054084;28;20025;-77
2023/12/31 00:54:07;;;;;;;3.88;2.10;;;;;;;8.47;100.00;100055.25;5036018;28;20090;-78
2023/12/31 00:56:33;;;;;;;1.80;1.63;;;;;;;8.47;100.00;100056.06;5036239;28;20090;-77
2023/12/31 00:58:58;;;;;;;2.97;1.98;;;;;;;8.46;100.00;100049.13;5036035;28;20072;-77
2023/12/31 01:01:24;;;;;;;2.63;2.00;;;;;;;8.48;100.00;100038.25;5036109;28;20269;-77
2023/12/31 01:03:50;;;;;;;1.90;1.80;;;;;;;8.53;100.00;100049.88;5036013;28;20539;-77
2023/12/31 01:06:16;;;;;;;2.78;1.98;;;;;;;8.54;100.00;100045.34;5053768;28;20029;-76
2023/12/31 01:08:41;;;;;;;2.10;1.90;;;;;;;8.49;100.00;100034.53;5035702;28;20135;-78
2023/12/31 01:11:07;;;;;;;3.15;2.17;;;;;;;8.48;100.00;100032.91;5035929;28;20025;-78
2023/12/31 01:13:32;;;;;;;4.05;2.05;;;;;;;8.49;100.00;100032.69;5053701;28;20029;-76
2023/12/31 01:15:57;;;;;;;2.20;2.00;;;;;;;8.54;100.00;100008.06;5036008;28;20024;-78
2023/12/31 01:18:23;;;;;;;3.30;2.10;;;;;;;8.58;100.00;100011.91;5035791;28;20029;-76
2023/12/31 01:20:48;;;;;;;2.50;1.90;;;;;;;8.48;100.00;100001.75;5035685;28;20079;-76
2023/12/31 01:23:14;;;;;;;5.30;1.88;;;;;;;8.50;100.00;100012.19;5053570;28;20168;-77
2023/12/31 01:25:39;;;;;;;4.40;2.65;;;;;;;8.49;100.00;100011.38;5035620;28;20048;-78
2023/12/31 01:28:05;;;;;;;2.70;2.25;;;;;;;8.50;100.00;99996.22;5053627;28;20052;-76
2023/12/31 01:30:30;;;;;;;2.63;1.85;;;;;;;8.46;100.00;99995.84;5053379;28;20032;-76
2023/12/31 01:32:56;;;;;;;2.38;2.13;;;;;;;8.43;100.00;99992.81;5053355;28;20093;-77
2023/12/31 01:35:22;;;;;;;2.97;1.90;;;;;;;8.44;100.00;99989.09;5053344;28;20063;-76
2023/12/31 01:37:47;;;;;;;2.13;1.58;;;;;;;8.43;100.00;99977.63;5035410;28;20025;-78
2023/12/31 01:40:13;;;;;;;2.65;1.52;;;;;;;8.42;100.00;99984.00;5035509;28;20029;-77
2023/12/31 01:42:38;;;;;;;3.65;2.13;;;;;;;8.43;100.00;99966.97;5035492;28;20033;-75
2023/12/31 01:45:04;;;;;;;2.03;1.80;;;;;;;8.42;100.00;99978.66;5035272;28;20052;-75
2023/12/31 01:47:32;;;;;;;3.45;2.20;;;;;;;8.42;100.00;99969.88;5035388;28;20021;-76
2023/12/31 01:49:57;;;;;;;4.13;2.08;;;;;;;8.46;100.00;99957.72;5035232;28;20083;-76
2023/12/31 01:52:24;;;;;;;2.20;2.00;;;;;;;8.48;100.00;99961.78;5052984;28;20036;-76
2023/12/31 01:54:53;;;;;;;2.50;1.75;;;;;;;8.46;100.00;99949.75;5035178;28;20076;-76
2023/12/31 01:57:23;;;;;;;3.33;2.05;;;;;;;8.43;100.00;99947.53;5052457;28;20112;-77
2023/12/31 01:59:50;;;;;;;2.22;2.03;;;;;;;8.44;100.00;99947.31;5053126;28;20412;-77
2023/12/31 02:02:15;;;;;;;2.90;2.13;;;;;;;8.47;100.00;99952.19;5052922;28;20025;-76
2023/12/31 02:04:42;;;;;;;1.85;1.75;;;;;;;8.47;100.00;99941.53;5052946;28;20056;-78
2023/12/31 02:07:07;;;;;;;2.92;2.10;;;;;;;8.41;100.00;99944.25;5034894;28;20049;-76
2023/12/31 02:09:33;;;;;;;2.13;1.90;;;;;;;8.37;100.00;99943.88;5034905;28;20068;-75
2023/12/31 02:11:59;;;;;;;1.83;1.73;;;;;;;8.35;100.00;99936.09;5052640;28;20033;-77
2023/12/31 02:14:24;;;;;;;2.47;2.10;;;;;;;8.34;100.00;99921.16;5034924;28;20025;-76
2023/12/31 02:16:50;;;;;;;2.95;2.20;;;;;;;8.38;100.00;99918.84;5052721;28;20033;-76
2023/12/31 02:19:15;;;;;;;2.22;2.00;;;;;;;8.40;100.00;99913.34;5052633;28;20029;-77
2023/12/31 02:21:41;;;;;;;2.55;2.00;;;;;;;8.31;100.00;99902.13;5034577;28;20412;-76
2023/12/31 02:24:11;;;;;;;3.33;2.20;;;;;;;8.34;100.00;99901.69;5034782;28;20104;-75
2023/12/31 02:26:37;;;;;;;2.22;2.03;;;;;;;8.30;100.00;99884.50;5052736;28;20035;-76
2023/12/31 02:29:02;;;;;;;2.10;1.90;;;;;;;8.30;100.00;99892.50;5052728;28;20382;-77
2023/12/31 02:31:27;;;;;;;2.85;2.08;;;;;;;8.33;100.00;99878.72;5052458;28;20033;-77
2023/12/31 02:33:53;;;;;;;3.33;2.38;;;;;;;8.42;100.00;99874.78;5052560;28;20033;-77
2023/12/31 02:36:18;;;;;;;2.58;2.10;;;;;;;8.37;100.00;99862.09;5034567;28;20033;-76
2023/12/31 02:38:43;;;;;;;3.40;2.20;;;;;;;8.39;100.00;99869.91;5052555;28;20025;-77
2023/12/31 02:41:08;;;;;;;2.65;2.25;;;;;;;8.38;100.00;99854.94;5052411;28;20032;-76
2023/12/31 02:43:34;;;;;;;2.50;2.30;;;;;;;8.40;100.00;99852.88;5034438;28;20032;-76
2023/12/31 02:45:59;;;;;;;4.18;2.05;;;;;;;8.43;100.00;99840.97;5052340;28;20032;-77
2023/12/31 02:48:24;;;;;;;2.45;2.00;;;;;;;8.44;100.00;99842.59;5052220;28;20029;-76
2023/12/31 02:50:50;;;;;;;3.40;2.17;;;;;;;8.35;100.00;99832.22;5034379;28;20068;-76
2023/12/31 02:53:15;;;;;;;2.80;2.30;;;;;;;8.41;100.00;99830.53;5034367;28;20123;-76
2023/12/31 02:55:41;;;;;;;2.58;2.20;;;;;;;8.42;100.00;99816.19;5052307;28;20377;-76
2023/12/31 02:58:06;;;;;;;5.05;2.80;;;;;;;8.42;100.00;99820.69;5034157;28;20029;-76
2023/12/31 03:00:31;;;;;;;2.78;2.00;;;;;;;8.37;100.00;99824.81;5034102;28;20071;-77
2023/12/31 03:02:57;;;;;;;3.97;2.47;;;;;;;8.48;100.00;99817.13;5052069;28;20043;-76
2023/12/31 03:05:22;;;;;;;3.65;2.13;;;;;;;8.48;100.00;99801.94;5052227;28;20061;-75
2023/12/31 03:07:47;;;;;;;2.30;2.10;;;;;;;8.42;100.00;99796.72;5051961;28;20032;-75
2023/12/31 03:10:13;;;;;;;2.90;2.00;;;;;;;8.46;100.00;99795.22;5050890;28;20033;-76
2023/12/31 03:12:39;;;;;;;3.78;2.38;;;;;;;8.48;100.00;99793.16;5051739;28;20037;-77
2023/12/31 03:15:05;;;;;;;3.28;2.20;;;;;;;8.50;100.00;99788.41;5052014;28;20481;-77
2023/12/31 03:17:30;;;;;;;2.42;2.13;;;;;;;8.43;100.00;99777.03;5051786;28;20082;-77
2023/12/31 03:19:55;;;;;;;2.63;2.28;;;;;;;8.41;100.00;99768.47;5051760;28;20021;-76
2023/12/31 03:22:21;;;;;;;1.92;1.73;;;;;;;8.35;100.00;99767.50;5051681;28;20091;-77
2023/12/31 03:24:46;;;;;;;5.40;2.35;;;;;;;8.33;100.00;99746.41;5033866;28;20510;-77
2023/12/31 03:27:11;;;;;;;2.30;1.77;;;;;;;8.32;100.00;99731.44;5051629;28;20551;-76
2023/12/31 03:29:37;;;;;;;2.10;1.90;;;;;;;8.28;100.00;99738.25;5033808;28;20021;-77
2023/12/31 03:32:03;;;;;;;3.33;2.97;;;;;;;8.29;100.00;99734.56;5033683;28;20092;-76
2023/12/31 03:34:29;;;;;;;2.30;2.03;;;;;;;8.22;100.00;99725.03;5051536;28;20033;-76
2023/12/31 03:36:54;;;;;;;2.40;2.20;;;;;;;8.26;100.00;99720.88;5051523;28;20064;-76
2023/12/31 03:39:19;;;;;;;2.88;1.83;;;;;;;8.25;100.00;99728.06;5051529;28;20032;-76
2023/12/31 03:41:45;;;;;;;2.30;2.10;;;;;;;8.22;100.00;99709.88;5033573;28;20057;-76
2023/12/31 03:44:10;;;;;;;4.43;2.00;;;;;;;8.18;100.00;99692.72;5051451;28;20029;-75
2023/12/31 03:46:35;;;;;;;4.18;2.55;;;;;;;8.17;100.00;99691.09;5051401;28;20029;-76
2023/12/31 03:49:01;;;;;;;3.67;2.22;;;;;;;8.22;100.00;99685.09;5051327;28;20042;-76
2023/12/31 03:51:26;;;;;;;2.45;2.08;;;;;;;8.18;100.00;99674.09;5051393;28;20032;-77
2023/12/31 03:53:51;;;;;;;3.20;2.53;;;;;;;8.20;100.00;99687.19;5051367;28;20055;-75
2023/12/31 03:56:17;;;;;;;2.42;2.22;;;;;;;8.25;100.00;99666.00;5051302;28;20477;-77
2023/12/31 03:58:42;;;;;;;3.42;2.25;;;;;;;8.22;100.00;99669.13;5051194;28;20029;-76
2023/12/31 04:01:08;;;;;;;2.17;2.00;;;;;;;8.22;100.00;99653.16;5051277;28;20124;-77
2023/12/31 04:03:33;;;;;;;2.55;2.10;;;;;;;8.28;100.00;99657.56;5051187;28;20036;-77
2023/12/31 04:05:58;;;;;;;2.92;1.90;;;;;;;8.32;100.00;99637.41;5051151;28;20113;-76
2023/12/31 04:08:24;;;;;;;2.13;1.95;;;;;;;8.42;100.00;99637.72;5051062;28;20476;-77
2023/12/31 04:10:50;;;;;;;2.42;1.92;;;;;;;8.38;100.00;99621.38;5033247;28;20521;-77
2023/12/31 04:13:16;;;;;;;3.13;2.50;;;;;;;8.39;100.00;99638.19;5033148;28;20021;-76
2023/12/31 04:15:42;;;;;;;3.42;2.47;;;;;;;8.34;100.00;99624.72;5051074;28;20496;-76
2023/12/31 04:18:07;;;;;;;4.50;2.40;;;;;;;8.34;100.00;99622.84;5033070;28;20025;-77
2023/12/31 04:20:32;;;;;;;3.05;2.30;;;;;;;8.28;100.00;99612.28;5034028;28;20108;-77
2023/12/31 04:22:58;;;;;;;2.58;2.30;;;;;;;8.18;100.00;99609.38;5036598;28;20124;-76
2023/12/31 04:25:23;;;;;;;2.95;2.20;;;;;;;8.19;100.00;99616.31;5036784;28;20029;-75
2023/12/31 04:27:48;;;;;;;2.95;2.38;;;;;;;8.22;100.00;99606.03;5036505;28;20124;-75
2023/12/31 04:30:14;;;;;;;2.83;2.20;;;;;;;8.20;100.00;99596.66;5036639;28;20119;-75
2023/12/31 04:32:39;;;;;;;2.50;2.30;;;;;;;8.19;100.00;99587.84;5036547;28;20060;-76
2023/12/31 04:35:05;;;;;;;4.32;2.60;;;;;;;8.24;100.00;99587.97;5036506;28;20452;-76
2023/12/31 04:37:31;;;;;;;2.40;2.20;;;;;;;8.20;100.00;99597.47;5036396;28;20508;-76
2023/12/31 04:39:56;;;;;;;3.10;2.35;;;;;;;8.19;100.00;99592.38;5036380;28;20033;-77
2023/12/31 04:42:21;;;;;;;3.15;2.30;;;;;;;8.19;100.00;99574.53;5036570;28;20029;-77
2023/12/31 04:44:47;;;;;;;2.97;2.53;;;;;;;8.14;100.00;99573.59;5054152;28;20475;-77
2023/12/31 04:47:12;;;;;;;3.63;2.28;;;;;;;8.14;100.00;99578.94;5054245;28;20025;-75
2023/12/31 04:49:37;;;;;;;3.42;2.63;;;;;;;8.15;100.00;99569.91;5054099;28;20389;-75
2023/12/31 04:52:03;;;;;;;3.58;2.55;;;;;;;8.12;100.00;99559.72;5054414;28;20033;-76
2023/12/31 04:54:28;;;;;;;2.78;2.42;;;;;;;8.10;100.00;99561.78;5054180;28;20397;-75
2023/12/31 04:56:54;;;;;;;3.83;2.85;;;;;;;8.06;100.00;99550.78;5053947;28;20116;-76
2023/12/31 04:59:19;;;;;;;2.42;2.22;;;;;;;8.12;100.00;99541.88;5036053;28;20040;-76
2023/12/31 05:01:49;;;;;;;3.28;2.97;;;;;;;8.23;100.00;99541.06;5053820;28;20044;-75
2023/12/31 05:04:14;;;;;;;2.92;2.60;;;;;;;8.29;100.00;99542.81;5035902;28;20039;-76
2023/12/31 05:06:39;;;;;;;2.55;2.35;;;;;;;8.35;100.00;99541.09;5053867;28;20357;-76
2023/12/31 05:09:08;;;;;;;3.50;2.63;;;;;;;8.40;100.00;99533.25;5053819;28;20448;-77
2023/12/31 05:11:33;;;;;;;2.90;2.60;;;;;;;8.35;100.00;99517.94;5053747;28;20043;-77
2023/12/31 05:13:58;;;;;;;4.75;2.88;;;;;;;8.40;100.00;99511.13;5035705;28;20112;-75
2023/12/31 05:16:25;;;;;;;3.25;2.58;;;;;;;8.38;100.00;99506.00;5053613;28;20029;-76
2023/12/31 05:18:50;;;;;;;2.67;2.47;;;;;;;8.36;100.00;99514.25;5035725;28;20082;-77
2023/12/31 05:21:16;;;;;;;2.88;2.55;;;;;;;8.35;100.00;99504.63;5035707;28;20029;-77
2023/12/31 05:23:41;;;;;;;5.07;2.20;;;;;;;8.53;100.00;99492.22;5035753;28;20033;-77
2023/12/31 05:26:07;;;;;;;5.78;2.50;;;;;;;8.42;100.00;99483.22;5035584;28;20115;-76
2023/12/31 05:28:32;;;;;;;2.67;2.28;;;;;;;8.43;100.00;99484.03;5035680;28;20025;-76
2023/12/31 05:30:58;;;;;;;3.92;2.42;;;;;;;8.38;100.00;99464.25;5053382;28;20432;-76
2023/12/31 05:33:23;;;;;;;5.25;3.00;;;;;;;8.36;100.00;99500.09;5034529;28;20037;-78
2023/12/31 05:35:49;;;;;;;3.47;2.58;;;;;;;8.43;100.00;99468.06;5035579;28;20025;-77
2023/12/31 05:38:14;;;;;;;4.15;2.63;;;;;;;8.31;100.00;99466.16;5053308;28;20032;-76
2023/12/31 05:40:40;;;;;;;4.45;2.90;;;;;;;8.35;100.00;99464.69;5035428;28;20083;-76
2023/12/31 05:43:05;;;;;;;3.78;3.42;;;;;;;8.30;100.00;99450.41;5053303;28;20029;-75
2023/12/31 05:45:30;;;;;;;4.05;2.85;;;;;;;8.36;100.00;99447.66;5053196;28;20025;-76
2023/12/31 05:47:56;;;;;;;3.85;2.60;;;;;;;8.35;100.00;99455.88;5053285;28;20033;-76
2023/12/31 05:50:21;;;;;;;5.63;2.90;;;;;;;8.31;100.00;99452.84;5035323;28;20035;-76
2023/12/31 05:52:47;;;;;;;3.00;2.53;;;;;;;8.32;100.00;99435.00;5053058;28;20025;-76
2023/12/31 05:55:13;;;;;;;4.78;2.65;;;;;;;8.34;100.00;99443.59;5035152;28;20031;-77
2023/12/31 05:57:39;;;;;;;3.05;2.75;;;;;;;8.31;100.00;99428.88;5053122;28;20025;-75
2023/12/31 06:00:05;;;;;;;3.25;2.70;;;;;;;8.24;100.00;99430.88;5052975;28;20553;-77
2023/12/31 06:02:31;;;;;;;4.47;2.95;;;;;;;8.28;100.00;99431.19;5035045;28;20028;-75
2023/12/31 06:04:57;;;;;;;3.63;2.72;;;;;;;8.30;100.00;99437.09;5052886;28;20028;-76
2023/12/31 06:07:22;;;;;;;3.22;2.50;;;;;;;8.33;100.00;99436.63;5052896;28;20028;-75
2023/12/31 06:09:47;;;;;;;3.33;2.72;;;;;;;8.25;100.00;99435.13;5034924;28;20075;-76
2023/12/31 06:12:13;;;;;;;4.05;2.92;;;;;;;8.27;100.00;99416.28;5052743;28;20083;-75
2023/12/31 06:14:38;;;;;;;3.72;2.88;;;;;;;8.29;100.00;99417.66;5053455;28;20063;-78
2023/12/31 06:17:03;;;;;;;3.88;2.95;;;;;;;8.36;100.00;99415.69;5034846;28;20072;-76
2023/12/31 06:19:29;;;;;;;3.50;2.50;;;;;;;8.28;100.00;99426.69;5034768;28;20026;-77
2023/12/31 06:21:54;;;;;;;3.00;2.70;;;;;;;8.30;100.00;99407.81;5052581;28;20032;-76
2023/12/31 06:24:19;;;;;;;2.65;2.45;;;;;;;8.30;100.00;99400.63;5052616;28;20028;-76
2023/12/31 06:26:45;;;;;;;2.55;2.35;;;;;;;8.25;100.00;99399.72;5034821;28;20048;-76
2023/12/31 06:29:10;;;;;;;3.78;2.70;;;;;;;8.23;100.00;99393.81;5052635;28;20036;-78
2023/12/31 06:31:35;;;;;;;3.35;2.67;;;;;;;8.24;100.00;99398.91;5052480;28;20033;-76
2023/12/31 06:34:01;;;;;;;5.13;3.05;;;;;;;8.16;100.00;99379.84;5052461;28;20080;-76
2023/12/31 06:36:26;;;;;;;3.47;3.03;;;;;;;8.15;100.00;99371.03;5034555;28;20070;-76
2023/12/31 06:38:52;;;;;;;4.40;2.92;;;;;;;8.20;100.00;99373.00;5052465;28;20107;-77
2023/12/31 06:41:21;;;;;;;2.63;2.42;;;;;;;8.23;100.00;99359.22;5052397;28;20044;-76
2023/12/31 06:43:47;;;;;;;4.15;3.10;;;;;;;8.28;100.00;99365.44;5052248;28;20496;-76
2023/12/31 06:46:12;;;;;;;2.88;2.67;;;;;;;8.32;100.00;99363.09;5034449;28;20025;-76
2023/12/31 06:48:38;;;;;;;5.65;3.03;;;;;;;8.26;100.00;99345.41;5052248;28;20557;-76
2023/12/31 06:51:03;;;;;;;5.32;2.88;;;;;;;8.29;100.00;99351.06;5052214;28;20025;-76
2023/12/31 06:53:29;;;;;;;3.40;2.45;;;;;;;8.21;100.00;99338.13;5034294;28;20052;-76
2023/12/31 06:55:54;;;;;;;3.65;2.65;;;;;;;8.33;100.00;99336.28;5052069;28;20381;-75
2023/12/31 06:58:19;;;;;;;3.90;2.70;;;;;;;8.33;100.00;99336.28;5052120;28;20017;-76
2023/12/31 07:00:45;;;;;;;3.85;3.30;;;;;;;8.40;100.00;99325.50;5052166;28;20485;-75
2023/12/31 07:03:10;;;;;;;3.08;2.78;;;;;;;8.45;100.00;99324.78;5052030;28;20322;-76
2023/12/31 07:05:35;;;;;;;4.18;3.20;;;;;;;8.48;100.00;99327.78;5052054;28;20028;-76
2023/12/31 07:08:01;;;;;;;2.47;2.22;;;;;;;8.54;100.00;99321.50;5051902;28;20094;-76
2023/12/31 07:10:26;;;;;;;3.38;2.28;;;;;;;8.71;100.00;99321.56;5051889;28;20039;-75
2023/12/31 07:12:52;;;;;;;4.95;2.90;;;;;;;8.79;100.00;99310.50;5051770;28;20051;-77
2023/12/31 07:15:18;;;;;;;2.70;2.50;;;;;;;8.96;100.00;99313.16;5034125;28;20120;-76
2023/12/31 07:17:43;;;;;;;3.35;2.70;;;;;;;8.93;100.00;99303.00;5051863;28;20668;-76
2023/12/31 07:20:09;;;;;;;3.03;2.72;;;;;;;9.05;100.00;99303.75;5033866;28;20043;-76
2023/12/31 07:22:34;;;;;;;3.08;2.78;;;;;;;9.10;100.00;99289.69;5051694;28;20033;-76
2023/12/31 07:25:01;;;;;;;3.15;2.72;;;;;;;9.25;100.00;99289.91;5051610;28;20100;-76
2023/12/31 07:27:27;;;;;;;3.17;2.88;;;;;;;9.28;100.00;99298.25;5051807;28;20025;-75
2023/12/31 07:29:52;;;;;;;3.05;2.38;;;;;;;9.26;100.00;99286.22;5051581;28;20029;-77
2023/12/31 07:32:18;;;;;;;3.97;2.92;;;;;;;9.31;100.00;99279.09;5051482;28;20039;-77
2023/12/31 07:34:43;;;;;;;4.55;3.17;;;;;;;9.36;100.00;99273.03;5033641;28;20090;-76
2023/12/31 07:37:09;;;;;;;4.55;2.75;;;;;;;9.39;100.00;99282.38;5051607;28;20025;-77
2023/12/31 07:39:34;;;;;;;4.43;2.70;;;;;;;9.35;100.00;99276.75;5051380;28;20040;-77
2023/12/31 07:42:04;;;;;;;3.10;2.80;;;;;;;9.40;100.00;99271.47;5051435;28;20032;-77
2023/12/31 07:44:29;;;;;;;3.35;2.60;;;;;;;9.44;100.00;99263.78;5033640;28;20059;-78
2023/12/31 07:46:54;;;;;;;3.28;2.60;;;;;;;9.59;100.00;99288.03;5033690;28;20025;-76
2023/12/31 07:49:20;;;;;;;3.42;2.90;;;;;;;9.69;100.00;99263.31;5033425;28;20040;-75
2023/12/31 07:51:45;;;;;;;3.00;2.70;;;;;;;9.78;100.00;99264.50;5051407;28;20021;-76
2023/12/31 07:54:10;;;;;;;3.47;2.88;;;;;;;9.72;100.00;99250.28;5051500;28;20044;-75
2023/12/31 07:56:36;;;;;;;4.35;3.00;;;;;;;9.72;100.00;99255.63;5050759;28;20025;-75
2023/12/31 07:59:02;;;;;;;3.42;3.10;;;;;;;9.79;100.00;99258.91;5051403;28;20029;-75
2023/12/31 08:01:27;;;;;;;3.15;2.85;;;;;;;9.83;100.00;99269.91;5051187;28;20029;-75
2023/12/31 08:03:52;;;;;;;3.33;2.75;;;;;;;9.67;100.00;99246.75;5033301;28;20063;-77
2023/12/31 08:06:18;;;;;;;3.65;3.25;;;;;;;9.55;100.00;99254.88;5051050;28;20025;-76
2023/12/31 08:08:43;;;;;;;3.50;2.25;;;;;;;9.59;100.00;99262.16;5051330;28;20120;-77
2023/12/31 08:11:09;;;;;;;3.45;2.63;;;;;;;9.67;100.00;99238.75;5033329;28;20021;-75
2023/12/31 08:13:34;;;;;;;3.00;2.70;;;;;;;9.69;100.00;99266.00;5033306;28;20040;-75
2023/12/31 08:16:00;;;;;;;2.65;2.45;;;;;;;9.65;100.00;99251.53;5051122;28;20104;-77
2023/12/31 08:18:26;;;;;;;2.97;2.67;;;;;;;9.77;100.00;99266.38;5051085;28;20071;-76
2023/12/31 08:20:51;;;;;;;4.70;3.40;;;;;;;9.88;100.00;99237.97;5033150;28;20064;-77
2023/12/31 08:23:18;;;;;;;2.88;2.60;;;;;;;9.71;100.00;99229.19;5051173;28;20424;-76
2023/12/31 08:25:43;;;;;;;3.30;2.80;;;;;;;9.63;100.00;99271.28;5033069;28;20393;-76
2023/12/31 08:28:08;;;;;;;3.83;2.90;;;;;;;9.51;100.00;99241.19;5050995;28;20027;-76
2023/12/31 08:30:34;;;;;;;2.90;2.70;;;;;;;9.49;100.00;99248.66;5051078;28;20390;-76
2023/12/31 08:32:59;;;;;;;3.38;2.72;;;;;;;9.58;100.00;99257.06;5051108;28;20385;-76
2023/12/31 08:35:26;;;;;;;2.90;2.55;;;;;;;9.48;100.00;99240.88;5050887;28;20539;-76
2023/12/31 08:37:52;;;;;;;3.28;2.95;;;;;;;9.36;100.00;99243.69;5050872;28;20029;-76
2023/12/31 08:40:19;;;;;;;3.13;2.85;;;;;;;9.29;100.00;99259.06;5033022;28;20025;-75
2023/12/31 08:42:44;;;;;;;3.30;2.83;;;;;;;9.04;100.00;99240.00;5032936;28;20431;-76
2023/12/31 08:45:10;;;;;;;4.60;3.30;;;;;;;8.82;100.00;99223.91;5051372;28;20082;-77
2023/12/31 08:47:37;;;;;;;3.25;2.75;;;;;;;8.74;100.00;99238.47;5050964;28;20033;-75
2023/12/31 08:50:09;;;;;;;4.63;3.30;;;;;;;8.61;100.00;99230.75;5050846;28;20032;-75
2023/12/31 08:52:45;;;;;;;4.45;3.10;;;;;;;8.66;100.00;99228.19;5032936;28;20037;-75
2023/12/31 08:55:10;;;;;;;3.92;3.05;;;;;;;8.67;100.00;99243.97;5050764;28;20036;-76
2023/12/31 08:57:40;;;;;;;3.25;2.95;;;;;;;8.50;100.00;99234.31;5032740;28;20029;-76
2023/12/31 09:00:07;;;;;;;4.60;3.10;;;;;;;8.52;100.00;99237.53;5050666;28;20029;-76
2023/12/31 09:02:32;;;;;;;3.20;2.90;;;;;;;8.39;100.00;99265.28;5050701;28;20021;-77
2023/12/31 09:04:57;;;;;;;3.53;2.80;;;;;;;8.11;100.00;99230.66;5032745;28;20029;-78
2023/12/31 09:07:23;;;;;;;3.00;2.50;;;;;;;8.05;100.00;99238.50;5051260;28;20092;-76
2023/12/31 09:09:48;;;;;;;3.75;2.67;;;;;;;8.04;100.00;99247.53;5053902;28;20033;-77
2023/12/31 09:12:14;;;;;;;4.05;2.80;;;;;;;7.96;100.00;99231.97;5053833;28;20035;-77
2023/12/31 09:14:39;;;;;;;3.67;3.22;;;;;;;7.86;100.00;99246.94;5036100;28;20025;-76
2023/12/31 09:17:04;;;;;;;4.32;3.15;;;;;;;7.86;100.00;99253.06;5053889;28;20028;-76
2023/12/31 09:19:30;;;;;;;4.85;3.20;;;;;;;7.86;100.00;99249.59;5035806;28;20389;-77
2023/12/31 09:21:55;;;;;;;3.17;2.75;;;;;;;7.92;100.00;99228.16;5035829;28;20040;-77
2023/12/31 09:24:21;;;;;;;3.03;2.65;;;;;;;7.98;100.00;99248.50;5035973;28;20028;-77
2023/12/31 09:26:46;;;;;;;4.38;3.00;;;;;;;7.98;100.00;99258.34;5053752;28;20032;-75
2023/12/31 09:29:11;;;;;;;3.08;2.65;;;;;;;8.03;100.00;99266.41;5035829;28;20028;-78
2023/12/31 09:31:38;;;;;;;3.22;2.92;;;;;;;7.94;100.00;99250.03;5053691;28;20024;-77
2023/12/31 09:34:03;;;;;;;2.80;2.60;;;;;;;8.04;100.00;99258.19;5035690;28;20029;-77
2023/12/31 09:36:28;;;;;;;2.33;2.13;;;;;;;8.08;100.00;99258.53;5053523;28;20116;-78
2023/12/31 09:38:54;;;;;;;2.78;2.28;;;;;;;8.12;100.00;99273.00;5053677;28;20033;-76
2023/12/31 09:41:24;;;;;;;2.47;2.13;;;;;;;8.28;100.00;99282.09;5053475;28;20082;-76
2023/12/31 09:43:52;;;;;;;4.25;2.50;;;;;;;8.33;100.00;99283.00;5053492;28;20116;-76
2023/12/31 09:46:21;;;;;;;2.58;2.22;;;;;;;8.41;100.00;99275.72;5035319;28;20025;-77
2023/12/31 09:48:51;;;;;;;2.22;2.03;;;;;;;8.45;100.00;99282.16;5035434;28;20064;-79
2023/12/31 09:51:18;;;;;;;2.33;2.13;;;;;;;8.50;100.00;99284.94;5053229;28;20028;-78
2023/12/31 09:53:46;;;;;;;3.72;1.92;;;;;;;8.60;100.00;99295.75;5053326;28;20087;-76
2023/12/31 09:56:16;;;;;;;2.53;2.05;;;;;;;8.63;100.00;99297.94;5053396;28;20033;-78
2023/12/31 09:58:43;;;;;;;2.47;1.90;;;;;;;8.55;100.00;99283.16;5035902;28;20116;-78
2023/12/31 10:01:08;;;;;;;2.95;1.67;;;;;;;8.58;100.00;99303.19;5035532;28;20055;-77
2023/12/31 10:03:36;;;;;;;2.38;1.63;;;;;;;8.62;100.00;99299.78;5035313;28;20029;-79
2023/12/31 10:06:03;;;;;;;4.07;2.15;;;;;;;8.66;100.00;99319.59;5035493;28;20432;-78
2023/12/31 10:08:29;;;;;;;2.08;1.92;;;;;;;8.63;100.00;99289.94;5053139;28;20017;-77
2023/12/31 10:10:56;;;;;;;4.15;2.00;;;;;;;8.74;100.00;99289.09;5035559;28;20060;-77
2023/12/31 10:13:22;;;;;;;2.92;1.92;;;;;;;8.75;100.00;99280.06;5053217;28;20064;-79
2023/12/31 10:15:47;;;;;;;2.53;1.75;;;;;;;8.76;100.00;99308.31;5053108;28;20037;-78
2023/12/31 10:18:12;;;;;;;2.13;1.98;;;;;;;8.83;100.00;99284.16;5034806;28;20025;-77
2023/12/31 10:20:38;;;;;;;2.05;1.50;;;;;;;8.83;100.00;99276.97;5035041;28;20074;-77
2023/12/31 10:23:04;;;;;;;2.08;1.70;;;;;;;8.86;100.00;99303.16;5052914;28;20065;-77
2023/12/31 10:25:30;;;;;;;2.13;1.90;;;;;;;8.78;100.00;99287.56;5052795;28;20028;-77
2023/12/31 10:27:55;;;;;;;1.67;1.58;;;;;;;8.85;100.00;99288.22;5052742;28;20028;-77
2023/12/31 10:30:21;;;;;;;2.17;1.65;;;;;;;8.77;100.00;99277.94;5034777;28;20025;-78
2023/12/31 10:32:48;;;;;;;1.75;1.65;;;;;;;8.27;100.00;99283.13;5052556;28;20071;-79
2023/12/31 10:35:19;;;;;;;2.80;1.95;;;;;;;7.91;100.00;99300.25;5052639;28;20029;-79
2023/12/31 10:37:44;;;;;;;2.60;1.90;;;;;;;7.76;100.00;99296.22;5034629;28;20053;-78
2023/12/31 10:40:15;;;;;;;3.00;2.10;;;;;;;7.59;100.00;99281.22;5052591;28;20052;-76
2023/12/31 10:42:55;;;;;;;2.53;2.33;;;;;;;7.50;100.00;99293.22;5034653;28;20033;-77
2023/12/31 10:45:22;;;;;;;4.72;1.90;;;;;;;7.67;100.00;99288.81;5034804;28;20060;-76
2023/12/31 10:47:53;;;;;;;3.30;2.42;;;;;;;7.67;100.00;99310.91;5052723;28;20025;-76
2023/12/31 10:50:29;;;;;;;3.35;2.10;;;;;;;7.65;100.00;99302.38;5034554;28;20067;-74
2023/12/31 10:53:01;;;;;;;4.90;2.03;;;;;;;7.63;100.00;99283.16;5034558;28;20033;-75
2023/12/31 10:55:27;;;;;;;2.17;1.83;;;;;;;7.76;100.00;99293.53;5034507;28;20024;-76
2023/12/31 10:57:53;;;;;;;4.07;1.92;;;;;;;7.88;100.00;99293.53;5034470;28;20117;-77
2023/12/31 11:00:19;;;;;;;3.80;1.63;;;;;;;7.90;100.00;99282.66;5052234;28;20102;-77
2023/12/31 11:02:49;;;;;;;1.77;1.67;;;;;;;8.00;100.00;99289.00;5052424;28;20040;-78
2023/12/31 11:05:17;;;;;;;2.97;2.00;;;;;;;8.01;100.00;99303.91;5052305;28;20040;-76
2023/12/31 11:07:43;;;;;;;5.63;1.95;;;;;;;8.19;100.00;99270.19;5052139;28;20087;-77
2023/12/31 11:10:08;;;;;;;3.13;1.90;;;;;;;8.29;100.00;99281.84;5034406;28;20033;-77
2023/12/31 11:12:36;;;;;;;4.55;1.90;;;;;;;8.37;100.00;99309.97;5052187;28;20037;-76
2023/12/31 11:15:22;;;;;;;2.30;1.63;;;;;;;8.36;100.00;99311.81;5034006;28;20077;-78
2023/12/31 11:18:03;;;;;;;4.63;1.75;;;;;;;8.11;100.00;99299.88;5034186;28;20083;-78
2023/12/31 11:20:50;;;;;;;2.65;1.73;;;;;;;8.05;100.00;99306.91;5052100;28;20106;-75
2023/12/31 11:24:09;;;;;;;4.28;1.90;;;;;;;8.10;100.00;99315.03;5052066;28;20043;-77
2023/12/31 11:26:37;;;;;;;2.22;1.80;;;;;;;8.42;100.00;99298.63;4951859;29;20404;-75